QFA185 YPDN-AYPY
Flight info
| Callsign | QFA185 |
|---|---|
| Flight time | N/A |
| Altitude | 37000 |
| Route | RUPEG DCT MASRA B598 ESKIM DCT GUMBU GUMBU1 |
| Aircraft | A339/H-SADE1E2E3GHIJ3J5M1P2RWXY/LB2D1 |
Departure
| Time | 2026-04-29 11:53 |
|---|---|
| Airport | Darwin International Airport / RAAF Darwin (YPDN) |
Arrival
| Time | N/A |
|---|---|
| Airport | Port Moresby Jacksons International Airport (AYPY) |
| Time | Latitude | Longitude | Altitude | Speed | Heading |
|---|---|---|---|---|---|
| 2026-04-29 11:33 | -12.40823 | 130.87556 | 96 ft | 0 kts | 45° |
| 2026-04-29 11:46 | -12.40827 | 130.87552 | 98 ft | 2 kts | 50° |
| 2026-04-29 11:46 | -12.40833 | 130.87530 | 96 ft | 2 kts | 321° |
| 2026-04-29 11:46 | -12.40847 | 130.87545 | 96 ft | 0 kts | 141° |
| 2026-04-29 11:49 | -12.40854 | 130.87550 | 96 ft | 5 kts | 141° |
| 2026-04-29 11:50 | -12.40910 | 130.87591 | 100 ft | 14 kts | 150° |
| 2026-04-29 11:50 | -12.41020 | 130.87605 | 103 ft | 18 kts | 191° |
| 2026-04-29 11:50 | -12.41157 | 130.87556 | 107 ft | 24 kts | 199° |
| 2026-04-29 11:50 | -12.41249 | 130.87433 | 107 ft | 23 kts | 276° |
| 2026-04-29 11:51 | -12.41186 | 130.87252 | 106 ft | 31 kts | 290° |
| 2026-04-29 11:51 | -12.41110 | 130.87035 | 107 ft | 33 kts | 290° |
| 2026-04-29 11:51 | -12.41038 | 130.86829 | 109 ft | 28 kts | 289° |
| 2026-04-29 11:51 | -12.41015 | 130.86651 | 111 ft | 24 kts | 260° |
| 2026-04-29 11:52 | -12.40975 | 130.86521 | 114 ft | 16 kts | 334° |
| 2026-04-29 11:52 | -12.40919 | 130.86552 | 112 ft | 6 kts | 79° |
| 2026-04-29 11:52 | -12.40946 | 130.86596 | 112 ft | 10 kts | 124° |
| 2026-04-29 11:52 | -12.40982 | 130.86675 | 112 ft | 14 kts | 110° |
| 2026-04-29 11:53 | -12.41077 | 130.86948 | 107 ft | 87 kts | 109° |
| 2026-04-29 11:53 | -12.41368 | 130.87817 | 109 ft | 166 kts | 108° |
| 2026-04-29 11:53 | -12.41770 | 130.89024 | 713 ft | 182 kts | 108° |
| 2026-04-29 11:53 | -12.42156 | 130.90261 | 1737 ft | 183 kts | 107° |
| 2026-04-29 11:54 | -12.42554 | 130.91525 | 2524 ft | 194 kts | 107° |
| 2026-04-29 11:54 | -12.43007 | 130.92890 | 3109 ft | 211 kts | 108° |
| 2026-04-29 11:54 | -12.43511 | 130.94371 | 3624 ft | 229 kts | 108° |
| 2026-04-29 11:54 | -12.44059 | 130.95971 | 4050 ft | 246 kts | 108° |
| 2026-04-29 11:55 | -12.44629 | 130.97638 | 4673 ft | 252 kts | 108° |
| 2026-04-29 11:55 | -12.45206 | 130.99325 | 5433 ft | 252 kts | 108° |
| 2026-04-29 11:55 | -12.45785 | 131.01027 | 6145 ft | 254 kts | 109° |
| 2026-04-29 11:55 | -12.46370 | 131.02748 | 6813 ft | 258 kts | 109° |
| 2026-04-29 11:56 | -12.46936 | 131.04518 | 7370 ft | 265 kts | 104° |
| 2026-04-29 11:56 | -12.47265 | 131.06396 | 7948 ft | 271 kts | 98° |
| 2026-04-29 11:56 | -12.47538 | 131.08336 | 8500 ft | 278 kts | 99° |
| 2026-04-29 11:56 | -12.47834 | 131.10308 | 9079 ft | 284 kts | 99° |
| 2026-04-29 11:57 | -12.48147 | 131.12323 | 9651 ft | 289 kts | 99° |
| 2026-04-29 11:57 | -12.48472 | 131.14377 | 10198 ft | 295 kts | 99° |
| 2026-04-29 11:57 | -12.48811 | 131.16514 | 10392 ft | 313 kts | 99° |
| 2026-04-29 11:57 | -12.49167 | 131.18776 | 10547 ft | 331 kts | 99° |
| 2026-04-29 11:58 | -12.49542 | 131.21155 | 10812 ft | 343 kts | 99° |
| 2026-04-29 11:58 | -12.49920 | 131.23572 | 11332 ft | 345 kts | 100° |
| 2026-04-29 11:58 | -12.50296 | 131.25984 | 11850 ft | 348 kts | 100° |
| 2026-04-29 11:58 | -12.50680 | 131.28436 | 12364 ft | 351 kts | 100° |
| 2026-04-29 11:59 | -12.51069 | 131.30923 | 12882 ft | 353 kts | 101° |
| 2026-04-29 11:59 | -12.51459 | 131.33415 | 13392 ft | 356 kts | 101° |
| 2026-04-29 11:59 | -12.51853 | 131.35928 | 13896 ft | 358 kts | 101° |
| 2026-04-29 11:59 | -12.52250 | 131.38456 | 14349 ft | 360 kts | 101° |
| 2026-04-29 12:00 | -12.52644 | 131.40971 | 14778 ft | 363 kts | 101° |
| 2026-04-29 12:00 | -12.53045 | 131.43537 | 15212 ft | 366 kts | 100° |
| 2026-04-29 12:00 | -12.53448 | 131.46122 | 15638 ft | 368 kts | 100° |
| 2026-04-29 12:00 | -12.53852 | 131.48715 | 16059 ft | 371 kts | 100° |
| 2026-04-29 12:01 | -12.54261 | 131.51341 | 16473 ft | 374 kts | 100° |
| 2026-04-29 12:01 | -12.54672 | 131.53982 | 16889 ft | 377 kts | 100° |
| 2026-04-29 12:01 | -12.55085 | 131.56638 | 17300 ft | 379 kts | 100° |
| 2026-04-29 12:01 | -12.55503 | 131.59319 | 17692 ft | 383 kts | 99° |
| 2026-04-29 12:02 | -12.55923 | 131.62015 | 18107 ft | 385 kts | 99° |
| 2026-04-29 12:02 | -12.56346 | 131.64741 | 18479 ft | 388 kts | 99° |
| 2026-04-29 12:02 | -12.56766 | 131.67447 | 18839 ft | 390 kts | 99° |
| 2026-04-29 12:02 | -12.57193 | 131.70198 | 19206 ft | 392 kts | 99° |
| 2026-04-29 12:03 | -12.57622 | 131.72969 | 19572 ft | 395 kts | 100° |
| 2026-04-29 12:03 | -12.58188 | 131.75726 | 19913 ft | 396 kts | 107° |
| 2026-04-29 12:03 | -12.58983 | 131.78430 | 20265 ft | 399 kts | 108° |
| 2026-04-29 12:03 | -12.59773 | 131.81147 | 20631 ft | 402 kts | 107° |
| 2026-04-29 12:04 | -12.60559 | 131.83898 | 21021 ft | 403 kts | 107° |
| 2026-04-29 12:04 | -12.61345 | 131.86670 | 21402 ft | 406 kts | 107° |
| 2026-04-29 12:04 | -12.62134 | 131.89457 | 21762 ft | 409 kts | 107° |
| 2026-04-29 12:04 | -12.62927 | 131.92262 | 22147 ft | 411 kts | 107° |
| 2026-04-29 12:05 | -12.63727 | 131.95089 | 22520 ft | 414 kts | 107° |
| 2026-04-29 12:05 | -12.64521 | 131.97896 | 22892 ft | 416 kts | 107° |
| 2026-04-29 12:05 | -12.65330 | 132.00757 | 23256 ft | 419 kts | 107° |
| 2026-04-29 12:05 | -12.66142 | 132.03628 | 23614 ft | 422 kts | 107° |
| 2026-04-29 12:06 | -12.66962 | 132.06530 | 23936 ft | 424 kts | 107° |
| 2026-04-29 12:06 | -12.67612 | 132.09462 | 24211 ft | 429 kts | 98° |
| 2026-04-29 12:06 | -12.67619 | 132.12554 | 24541 ft | 433 kts | 84° |
| 2026-04-29 12:06 | -12.66938 | 132.15563 | 24844 ft | 437 kts | 71° |
| 2026-04-29 12:07 | -12.65601 | 132.18367 | 25161 ft | 441 kts | 58° |
| 2026-04-29 12:07 | -12.63670 | 132.20824 | 25464 ft | 445 kts | 45° |
| 2026-04-29 12:07 | -12.61245 | 132.22800 | 25784 ft | 447 kts | 32° |
| 2026-04-29 12:07 | -12.58447 | 132.24197 | 26092 ft | 450 kts | 19° |
| 2026-04-29 12:08 | -12.55436 | 132.24943 | 26402 ft | 451 kts | 6° |
| 2026-04-29 12:08 | -12.52294 | 132.25024 | 26728 ft | 451 kts | 355° |
| 2026-04-29 12:08 | -12.49153 | 132.24719 | 27009 ft | 454 kts | 353° |
| 2026-04-29 12:08 | -12.45987 | 132.24484 | 27325 ft | 456 kts | 356° |
| 2026-04-29 12:09 | -12.42799 | 132.24427 | 27649 ft | 459 kts | 359° |
| 2026-04-29 12:09 | -12.39592 | 132.24500 | 27945 ft | 461 kts | 1° |
| 2026-04-29 12:09 | -12.36410 | 132.24639 | 28230 ft | 464 kts | 1° |
| 2026-04-29 12:09 | -12.33182 | 132.24872 | 28516 ft | 467 kts | 7° |
| 2026-04-29 12:10 | -12.30009 | 132.25649 | 28818 ft | 471 kts | 18° |
| 2026-04-29 12:10 | -12.27023 | 132.27045 | 29109 ft | 474 kts | 30° |
| 2026-04-29 12:10 | -12.24331 | 132.29020 | 29393 ft | 477 kts | 41° |
| 2026-04-29 12:10 | -12.22060 | 132.31495 | 29755 ft | 477 kts | 53° |
| 2026-04-29 12:11 | -12.20282 | 132.34382 | 30011 ft | 480 kts | 64° |
| 2026-04-29 12:11 | -12.19098 | 132.37524 | 30271 ft | 481 kts | 76° |
| 2026-04-29 12:11 | -12.18521 | 132.40889 | 30553 ft | 481 kts | 87° |
| 2026-04-29 12:11 | -12.18551 | 132.44307 | 30835 ft | 482 kts | 94° |
| 2026-04-29 12:12 | -12.18708 | 132.47740 | 31075 ft | 485 kts | 92° |
| 2026-04-29 12:12 | -12.18631 | 132.51209 | 31348 ft | 488 kts | 87° |
| 2026-04-29 12:12 | -12.18322 | 132.54679 | 31617 ft | 490 kts | 84° |
| 2026-04-29 12:12 | -12.17874 | 132.58143 | 31885 ft | 493 kts | 82° |
| 2026-04-29 12:13 | -12.17362 | 132.61613 | 32149 ft | 495 kts | 81° |
| 2026-04-29 12:13 | -12.16831 | 132.65092 | 32436 ft | 496 kts | 81° |
| 2026-04-29 12:13 | -12.16296 | 132.68588 | 32645 ft | 498 kts | 81° |
| 2026-04-29 12:13 | -12.15771 | 132.72047 | 32834 ft | 500 kts | 81° |
| 2026-04-29 12:14 | -12.15239 | 132.75572 | 33010 ft | 501 kts | 81° |
| 2026-04-29 12:14 | -12.14708 | 132.79096 | 33172 ft | 502 kts | 81° |
| 2026-04-29 12:14 | -12.14176 | 132.82635 | 33306 ft | 504 kts | 81° |
| 2026-04-29 12:14 | -12.13640 | 132.86199 | 33358 ft | 507 kts | 81° |
| 2026-04-29 12:15 | -12.13103 | 132.89764 | 33497 ft | 508 kts | 81° |
| 2026-04-29 12:15 | -12.12572 | 132.93289 | 33652 ft | 508 kts | 81° |
| 2026-04-29 12:15 | -12.12028 | 132.96894 | 33826 ft | 507 kts | 81° |
| 2026-04-29 12:15 | -12.11496 | 133.00417 | 33982 ft | 507 kts | 80° |
| 2026-04-29 12:16 | -12.10958 | 133.03977 | 34164 ft | 506 kts | 80° |
| 2026-04-29 12:16 | -12.10422 | 133.07528 | 34357 ft | 504 kts | 80° |
| 2026-04-29 12:16 | -12.09885 | 133.11076 | 34503 ft | 504 kts | 80° |
| 2026-04-29 12:16 | -12.09348 | 133.14619 | 34653 ft | 504 kts | 80° |
| 2026-04-29 12:17 | -12.08819 | 133.18111 | 34811 ft | 504 kts | 80° |
| 2026-04-29 12:17 | -12.08282 | 133.21644 | 34948 ft | 503 kts | 80° |
| 2026-04-29 12:17 | -12.07746 | 133.25176 | 35116 ft | 502 kts | 80° |
| 2026-04-29 12:17 | -12.07210 | 133.28701 | 35277 ft | 502 kts | 80° |
| 2026-04-29 12:18 | -12.06672 | 133.32236 | 35432 ft | 502 kts | 80° |
| 2026-04-29 12:18 | -12.06135 | 133.35762 | 35590 ft | 502 kts | 80° |
| 2026-04-29 12:18 | -12.05596 | 133.39296 | 35756 ft | 501 kts | 80° |
| 2026-04-29 12:18 | -12.05066 | 133.42769 | 35924 ft | 501 kts | 79° |
| 2026-04-29 12:19 | -12.04530 | 133.46284 | 36119 ft | 500 kts | 79° |
| 2026-04-29 12:19 | -12.03994 | 133.49792 | 36305 ft | 500 kts | 79° |
| 2026-04-29 12:19 | -12.03457 | 133.53302 | 36476 ft | 500 kts | 79° |
| 2026-04-29 12:19 | -12.02919 | 133.56817 | 36655 ft | 500 kts | 79° |
| 2026-04-29 12:20 | -12.02382 | 133.60323 | 36834 ft | 499 kts | 79° |
| 2026-04-29 12:20 | -12.01845 | 133.63830 | 36987 ft | 499 kts | 79° |
| 2026-04-29 12:20 | -12.00772 | 133.70821 | 36984 ft | 497 kts | 79° |
| 2026-04-29 12:21 | -11.99879 | 133.76627 | 36985 ft | 497 kts | 79° |
| 2026-04-29 12:21 | -11.98629 | 133.84745 | 36982 ft | 496 kts | 79° |
| 2026-04-29 12:22 | -11.97731 | 133.90569 | 36982 ft | 495 kts | 79° |
| 2026-04-29 12:22 | -11.96664 | 133.97468 | 36983 ft | 495 kts | 79° |
| 2026-04-29 12:23 | -11.95588 | 134.04424 | 36988 ft | 495 kts | 79° |
| 2026-04-29 12:23 | -11.94510 | 134.11387 | 36987 ft | 495 kts | 79° |
| 2026-04-29 12:24 | -11.93447 | 134.18343 | 36986 ft | 495 kts | 79° |
| 2026-04-29 12:24 | -11.92400 | 134.25296 | 36986 ft | 495 kts | 79° |
| 2026-04-29 12:25 | -11.91352 | 134.32215 | 36984 ft | 495 kts | 79° |
| 2026-04-29 12:26 | -11.89768 | 134.42636 | 36983 ft | 495 kts | 79° |
| 2026-04-29 12:26 | -11.88715 | 134.49543 | 36980 ft | 495 kts | 79° |
| 2026-04-29 12:27 | -11.87653 | 134.56499 | 36983 ft | 495 kts | 79° |
| 2026-04-29 12:27 | -11.86591 | 134.63448 | 36979 ft | 495 kts | 79° |
| 2026-04-29 12:28 | -11.85525 | 134.70399 | 36979 ft | 496 kts | 79° |
| 2026-04-29 12:28 | -11.84464 | 134.77320 | 36980 ft | 496 kts | 79° |
| 2026-04-29 12:29 | -11.83395 | 134.84282 | 36981 ft | 496 kts | 79° |
| 2026-04-29 12:29 | -11.82323 | 134.91248 | 36982 ft | 496 kts | 79° |
| 2026-04-29 12:30 | -11.81250 | 134.98208 | 36982 ft | 496 kts | 79° |
| 2026-04-29 12:30 | -11.80180 | 135.05127 | 36975 ft | 497 kts | 79° |
| 2026-04-29 12:31 | -11.79103 | 135.12097 | 36982 ft | 497 kts | 79° |
| 2026-04-29 12:31 | -11.78021 | 135.19081 | 36985 ft | 497 kts | 79° |
| 2026-04-29 12:32 | -11.76939 | 135.26057 | 36979 ft | 497 kts | 79° |
| 2026-04-29 12:32 | -11.75853 | 135.33043 | 36984 ft | 497 kts | 79° |
| 2026-04-29 12:33 | -11.74773 | 135.39978 | 36986 ft | 497 kts | 79° |
| 2026-04-29 12:33 | -11.73685 | 135.46952 | 36984 ft | 497 kts | 79° |
| 2026-04-29 12:34 | -11.72597 | 135.53923 | 36984 ft | 497 kts | 79° |
| 2026-04-29 12:34 | -11.71504 | 135.60906 | 36983 ft | 497 kts | 79° |
| 2026-04-29 12:35 | -11.70412 | 135.67878 | 36983 ft | 498 kts | 79° |
| 2026-04-29 12:35 | -11.69316 | 135.74860 | 36985 ft | 498 kts | 79° |
| 2026-04-29 12:36 | -11.68219 | 135.81835 | 36984 ft | 498 kts | 79° |
| 2026-04-29 12:36 | -11.67127 | 135.88777 | 36982 ft | 498 kts | 79° |
| 2026-04-29 12:37 | -11.66025 | 135.95766 | 36983 ft | 499 kts | 79° |
| 2026-04-29 12:37 | -11.64921 | 136.02752 | 36998 ft | 498 kts | 79° |
| 2026-04-29 12:38 | -11.63816 | 136.09739 | 36989 ft | 498 kts | 79° |
| 2026-04-29 12:38 | -11.62709 | 136.16723 | 36983 ft | 498 kts | 79° |
| 2026-04-29 12:39 | -11.61609 | 136.23653 | 36982 ft | 498 kts | 79° |
| 2026-04-29 12:39 | -11.60502 | 136.30618 | 36981 ft | 497 kts | 79° |
| 2026-04-29 12:40 | -11.59394 | 136.37586 | 36979 ft | 497 kts | 79° |
| 2026-04-29 12:40 | -11.58278 | 136.44575 | 36977 ft | 498 kts | 79° |
| 2026-04-29 12:41 | -11.57167 | 136.51544 | 36977 ft | 498 kts | 79° |
| 2026-04-29 12:41 | -11.56063 | 136.58471 | 36976 ft | 498 kts | 79° |
| 2026-04-29 12:42 | -11.54947 | 136.65452 | 36978 ft | 498 kts | 79° |
| 2026-04-29 12:42 | -11.53829 | 136.72432 | 36979 ft | 498 kts | 79° |
| 2026-04-29 12:43 | -11.52717 | 136.79369 | 36984 ft | 498 kts | 79° |
| 2026-04-29 12:43 | -11.51595 | 136.86350 | 36981 ft | 498 kts | 79° |
| 2026-04-29 12:44 | -11.50474 | 136.93318 | 36980 ft | 498 kts | 79° |
| 2026-04-29 12:44 | -11.49349 | 137.00300 | 36975 ft | 498 kts | 79° |
| 2026-04-29 12:45 | -11.48226 | 137.07258 | 36973 ft | 498 kts | 79° |
| 2026-04-29 12:45 | -11.47108 | 137.14174 | 36973 ft | 498 kts | 79° |
| 2026-04-29 12:46 | -11.45977 | 137.21159 | 36974 ft | 498 kts | 79° |
| 2026-04-29 12:46 | -11.44847 | 137.28128 | 36973 ft | 498 kts | 79° |
| 2026-04-29 12:47 | -11.43722 | 137.35054 | 36974 ft | 498 kts | 79° |
| 2026-04-29 12:47 | -11.42587 | 137.42032 | 36970 ft | 498 kts | 79° |
| 2026-04-29 12:48 | -11.41450 | 137.49010 | 36973 ft | 498 kts | 79° |
| 2026-04-29 12:48 | -11.40320 | 137.55935 | 36974 ft | 498 kts | 79° |
| 2026-04-29 12:49 | -11.39181 | 137.62902 | 36978 ft | 497 kts | 79° |
| 2026-04-29 12:49 | -11.38047 | 137.69837 | 36974 ft | 497 kts | 79° |
| 2026-04-29 12:50 | -11.36906 | 137.76800 | 36972 ft | 497 kts | 79° |
| 2026-04-29 12:50 | -11.35765 | 137.83749 | 36970 ft | 497 kts | 79° |
| 2026-04-29 12:51 | -11.34630 | 137.90651 | 36973 ft | 497 kts | 79° |
| 2026-04-29 12:51 | -11.33486 | 137.97600 | 36973 ft | 497 kts | 79° |
| 2026-04-29 12:52 | -11.32339 | 138.04557 | 36967 ft | 497 kts | 79° |
| 2026-04-29 12:52 | -11.31191 | 138.11511 | 36969 ft | 497 kts | 79° |
| 2026-04-29 12:53 | -11.30042 | 138.18461 | 36967 ft | 497 kts | 79° |
| 2026-04-29 12:53 | -11.28894 | 138.25389 | 36969 ft | 498 kts | 79° |
| 2026-04-29 12:54 | -11.27741 | 138.32340 | 36975 ft | 498 kts | 79° |
| 2026-04-29 12:54 | -11.26585 | 138.39299 | 36977 ft | 497 kts | 79° |
| 2026-04-29 12:55 | -11.25437 | 138.46203 | 36979 ft | 497 kts | 79° |
| 2026-04-29 12:55 | -11.24280 | 138.53148 | 36976 ft | 496 kts | 79° |
| 2026-04-29 12:56 | -11.23122 | 138.60089 | 36973 ft | 496 kts | 79° |
| 2026-04-29 12:56 | -11.21965 | 138.67013 | 36968 ft | 496 kts | 79° |
| 2026-04-29 12:57 | -11.20805 | 138.73944 | 36964 ft | 496 kts | 79° |
| 2026-04-29 12:57 | -11.19652 | 138.80823 | 36965 ft | 496 kts | 79° |
| 2026-04-29 12:58 | -11.18490 | 138.87751 | 36967 ft | 496 kts | 79° |
| 2026-04-29 12:58 | -11.17323 | 138.94694 | 36966 ft | 497 kts | 79° |
| 2026-04-29 12:59 | -11.16155 | 139.01630 | 36963 ft | 497 kts | 79° |
| 2026-04-29 12:59 | -11.14991 | 139.08539 | 36965 ft | 497 kts | 79° |
| 2026-04-29 13:00 | -11.13814 | 139.15510 | 36969 ft | 497 kts | 79° |
| 2026-04-29 13:00 | -11.12645 | 139.22424 | 36971 ft | 498 kts | 79° |
| 2026-04-29 13:01 | -11.11467 | 139.29382 | 36970 ft | 498 kts | 79° |
| 2026-04-29 13:01 | -11.10287 | 139.36345 | 36974 ft | 498 kts | 79° |
| 2026-04-29 13:02 | -11.09112 | 139.43269 | 36973 ft | 498 kts | 79° |
| 2026-04-29 13:02 | -11.07930 | 139.50219 | 36969 ft | 498 kts | 79° |
| 2026-04-29 13:03 | -11.06744 | 139.57181 | 36969 ft | 498 kts | 79° |
| 2026-04-29 13:03 | -11.05558 | 139.64138 | 36967 ft | 498 kts | 79° |
| 2026-04-29 13:04 | -11.04380 | 139.71042 | 36969 ft | 498 kts | 79° |
| 2026-04-29 13:04 | -11.03189 | 139.78006 | 36971 ft | 498 kts | 79° |
| 2026-04-29 13:05 | -11.02000 | 139.84953 | 36968 ft | 497 kts | 79° |
| 2026-04-29 13:05 | -11.00811 | 139.91886 | 36967 ft | 497 kts | 79° |
| 2026-04-29 13:06 | -10.99629 | 139.98772 | 36963 ft | 497 kts | 79° |
| 2026-04-29 13:06 | -10.98435 | 140.05721 | 36965 ft | 497 kts | 79° |
| 2026-04-29 13:07 | -10.97248 | 140.12626 | 36968 ft | 495 kts | 79° |
| 2026-04-29 13:07 | -10.96055 | 140.19547 | 36968 ft | 495 kts | 79° |
| 2026-04-29 13:08 | -10.94867 | 140.26426 | 36969 ft | 496 kts | 79° |
| 2026-04-29 13:08 | -10.93875 | 140.32180 | 36969 ft | 495 kts | 79° |
| 2026-04-29 13:09 | -10.92487 | 140.40217 | 36961 ft | 495 kts | 79° |
| 2026-04-29 13:09 | -10.91296 | 140.47107 | 36960 ft | 494 kts | 79° |
| 2026-04-29 13:10 | -10.90305 | 140.52831 | 36957 ft | 494 kts | 79° |
| 2026-04-29 13:10 | -10.89111 | 140.59714 | 36957 ft | 493 kts | 79° |
| 2026-04-29 13:11 | -10.87918 | 140.66589 | 36951 ft | 494 kts | 79° |
| 2026-04-29 13:11 | -10.86720 | 140.73484 | 36950 ft | 494 kts | 79° |
| 2026-04-29 13:12 | -10.85521 | 140.80372 | 36956 ft | 495 kts | 78° |
| 2026-04-29 13:12 | -10.84318 | 140.87272 | 36959 ft | 495 kts | 78° |
| 2026-04-29 13:13 | -10.83117 | 140.94158 | 36970 ft | 500 kts | 78° |
| 2026-04-29 13:13 | -10.81898 | 141.01132 | 36969 ft | 499 kts | 78° |
| 2026-04-29 13:14 | -10.80689 | 141.08034 | 36970 ft | 499 kts | 78° |
| 2026-04-29 13:14 | -10.79468 | 141.15000 | 36968 ft | 500 kts | 78° |
| 2026-04-29 13:15 | -10.78248 | 141.21953 | 36967 ft | 499 kts | 78° |
| 2026-04-29 13:15 | -10.77026 | 141.28905 | 36969 ft | 499 kts | 78° |
| 2026-04-29 13:16 | -10.75809 | 141.35820 | 36970 ft | 499 kts | 78° |
| 2026-04-29 13:16 | -10.74584 | 141.42771 | 36974 ft | 499 kts | 78° |
| 2026-04-29 13:17 | -10.73355 | 141.49733 | 36972 ft | 499 kts | 78° |
| 2026-04-29 13:17 | -10.72126 | 141.56689 | 36973 ft | 499 kts | 78° |
| 2026-04-29 13:18 | -10.70896 | 141.63641 | 36977 ft | 499 kts | 78° |
| 2026-04-29 13:18 | -10.69663 | 141.70601 | 36977 ft | 499 kts | 78° |
| 2026-04-29 13:19 | -10.68436 | 141.77517 | 36978 ft | 499 kts | 78° |
| 2026-04-29 13:19 | -10.67200 | 141.84475 | 36986 ft | 499 kts | 78° |
| 2026-04-29 13:20 | -10.65965 | 141.91415 | 36982 ft | 498 kts | 78° |
| 2026-04-29 13:20 | -10.64739 | 141.98297 | 36977 ft | 498 kts | 78° |
| 2026-04-29 13:21 | -10.63501 | 142.05241 | 36974 ft | 498 kts | 78° |
| 2026-04-29 13:21 | -10.62261 | 142.12180 | 36968 ft | 498 kts | 78° |
| 2026-04-29 13:22 | -10.61020 | 142.19120 | 36965 ft | 498 kts | 78° |
| 2026-04-29 13:22 | -10.59780 | 142.26047 | 36966 ft | 498 kts | 78° |
| 2026-04-29 13:23 | -10.58487 | 142.32926 | 36964 ft | 498 kts | 76° |
| 2026-04-29 13:23 | -10.56912 | 142.39782 | 36965 ft | 498 kts | 75° |
| 2026-04-29 13:24 | -10.55347 | 142.46641 | 36969 ft | 498 kts | 75° |
| 2026-04-29 13:24 | -10.53810 | 142.53523 | 36968 ft | 498 kts | 75° |
| 2026-04-29 13:25 | -10.52290 | 142.60354 | 36972 ft | 499 kts | 75° |
| 2026-04-29 13:25 | -10.49991 | 142.70657 | 36987 ft | 498 kts | 75° |
| 2026-04-29 13:26 | -10.48460 | 142.77515 | 36981 ft | 497 kts | 75° |
| 2026-04-29 13:26 | -10.46927 | 142.84369 | 36974 ft | 497 kts | 75° |
| 2026-04-29 13:27 | -10.45402 | 142.91183 | 36971 ft | 497 kts | 75° |
| 2026-04-29 13:27 | -10.43866 | 142.98040 | 36971 ft | 497 kts | 75° |
| 2026-04-29 13:28 | -10.42330 | 143.04888 | 36968 ft | 497 kts | 75° |
| 2026-04-29 13:28 | -10.40789 | 143.11747 | 36972 ft | 497 kts | 75° |
| 2026-04-29 13:29 | -10.39248 | 143.18602 | 36974 ft | 503 kts | 75° |
| 2026-04-29 13:29 | -10.37681 | 143.25565 | 36976 ft | 507 kts | 75° |
| 2026-04-29 13:30 | -10.36102 | 143.32576 | 36977 ft | 510 kts | 75° |
| 2026-04-29 13:30 | -10.34516 | 143.39612 | 36977 ft | 510 kts | 75° |
| 2026-04-29 13:31 | -10.32927 | 143.46652 | 36974 ft | 510 kts | 75° |
| 2026-04-29 13:31 | -10.31343 | 143.53662 | 36988 ft | 509 kts | 75° |
| 2026-04-29 13:32 | -10.29763 | 143.60647 | 36977 ft | 508 kts | 75° |
| 2026-04-29 13:32 | -10.28178 | 143.67648 | 36973 ft | 508 kts | 75° |
| 2026-04-29 13:33 | -10.26591 | 143.74647 | 36976 ft | 508 kts | 75° |
| 2026-04-29 13:33 | -10.25013 | 143.81601 | 36965 ft | 508 kts | 75° |
| 2026-04-29 13:34 | -10.23422 | 143.88607 | 36968 ft | 508 kts | 75° |
| 2026-04-29 13:34 | -10.21829 | 143.95610 | 36967 ft | 508 kts | 75° |
| 2026-04-29 13:35 | -10.20228 | 144.02575 | 36964 ft | 509 kts | 75° |
| 2026-04-29 13:35 | -10.18619 | 144.09578 | 36964 ft | 509 kts | 75° |
| 2026-04-29 13:36 | -10.17009 | 144.16582 | 36965 ft | 509 kts | 75° |
| 2026-04-29 13:36 | -10.15406 | 144.23552 | 36965 ft | 509 kts | 75° |
| 2026-04-29 13:37 | -10.13791 | 144.30559 | 36960 ft | 509 kts | 75° |
| 2026-04-29 13:37 | -10.12874 | 144.34537 | 36970 ft | 509 kts | 75° |
| 2026-04-29 13:38 | -10.11882 | 144.38840 | 36971 ft | 508 kts | 75° |